EW9186 Weather Reports


Display with metric or nautical units.
time (UTC)temp
F
wind
direction
speed
MPH
gust
MPH
rain 1hr
in
rain 24hr
in
rain mn
in
humidity
%
barometer
mb
20210923213035 90 215 0.0 6.0 0.00 0.00 0.00 25 1016.8
20210923211509 90 326 0.0 3.0 0.00 0.00 0.00 25 1017.1
20210923210004 90 117 0.0 0.0 0.00 0.00 0.00 25 1017.3
20210923204731 90 274 0.0 5.0 0.00 0.00 0.00 26 1017.4
20210923203156 91 248 0.0 2.0 0.00 0.00 0.00 26 1017.6
20210923201709 90 211 0.0 0.0 0.00 0.00 0.00 25 1017.8
20210923200122 90 223 0.0 0.0 0.00 0.00 0.00 26 1018.2
20210923194631 90 207 0.0 5.0 0.00 0.00 0.00 27 1018.4
20210923193104 89 132 0.0 0.0 0.00 0.00 0.00 27 1018.7
20210923191642 88 191 0.0 4.0 0.00 0.00 0.00 27 1019.0
20210923190054 88 210 0.0 5.0 0.00 0.00 0.00 28 1019.2
20210923184727 87 249 0.0 4.0 0.00 0.00 0.00 29 1019.5
20210923183035 86 155 0.0 2.0 0.00 0.00 0.00 30 1019.7
20210923181535 86 179 0.0 2.0 0.00 0.00 0.00 29 1020.1
20210923180047 85 224 0.0 0.0 0.00 0.00 0.00 31 1020.4
20210923174636 84 215 0.0 5.0 0.00 0.00 0.00 33 1020.6
20210923173035 84 233 1.0 7.0 0.00 0.00 0.00 33 1020.9
20210923171607 83 291 0.0 0.0 0.00 0.00 0.00 34 1021.1
20210923170017 82 279 0.0 0.0 0.00 0.00 0.00 34 1021.2
20210923164521 81 296 0.0 1.0 0.00 0.00 0.00 35 1021.5
20210923161628 79 42 0.0 0.0 0.00 0.00 0.00 37 1021.6
20210923160241 78 294 0.0 3.0 0.00 0.00 0.00 39 1021.7
20210923154636 77 28 0.0 2.0 0.00 0.00 0.00 42 1021.7
20210923153221 75 217 0.0 0.0 0.00 0.00 0.00 44 1021.7
20210923151620 73 216 0.0 0.0 0.00 0.00 0.00 46 1021.8
20210923150138 71 196 0.0 0.0 0.00 0.00 0.00 52 1021.8
20210923144536 69 196 0.0 0.0 0.00 0.00 0.00 55 1021.6
20210923143050 65 196 0.0 3.0 0.00 0.00 0.00 63 1021.5
20210923141543 62 196 0.0 0.0 0.00 0.00 0.00 68 1021.6
20210923140102 59 196 0.0 0.0 0.00 0.00 0.00 70 1021.7
20210923134539 58 196 0.0 1.0 0.00 0.00 0.00 72 1021.4
20210923133118 57 196 0.0 0.0 0.00 0.00 0.00 73 1021.4
20210923131558 56 196 0.0 0.0 0.00 0.00 0.00 72 1021.3
20210923130105 56 196 0.0 0.0 0.00 0.00 0.00 71 1021.3
20210923124552 56 196 0.0 0.0 0.00 0.00 0.00 70 1021.2
20210923123037 57 196 0.0 0.0 0.00 0.00 0.00 71 1021.3
20210923121544 57 196 0.0 0.0 0.00 0.00 0.00 68 1021.2
20210923120105 57 196 0.0 0.0 0.00 0.00 0.00 68 1021.1
20210923114609 57 196 0.0 0.0 0.00 0.00 0.00 67 1020.9
20210923113034 57 196 0.0 0.0 0.00 0.00 0.00 67 1020.9
20210923111526 58 196 0.0 0.0 0.00 0.00 0.00 66 1020.8
20210923110110 58 196 0.0 0.0 0.00 0.00 0.00 66 1020.8
20210923104518 58 196 0.0 0.0 0.00 0.00 0.00 66 1020.8
20210923103019 58 196 0.0 0.0 0.00 0.00 0.00 65 1020.7
20210923101522 59 196 0.0 0.0 0.00 0.00 0.00 64 1020.7
20210923100059 59 196 0.0 0.0 0.00 0.00 0.00 63 1020.8
20210923094514 60 196 0.0 0.0 0.00 0.00 0.00 62 1020.9
20210923093017 60 196 0.0 0.0 0.00 0.00 0.00 62 1020.9
20210923091510 60 196 0.0 0.0 0.00 0.00 0.00 61 1021.1
20210923090127 61 196 0.0 0.0 0.00 0.00 0.00 61 1021.1
20210923084643 61 196 0.0 0.0 0.00 0.00 0.00 61 1021.3
20210923081640 61 196 0.0 0.0 0.00 0.00 0.00 61 1021.2
20210923080108 61 196 0.0 0.0 0.00 0.00 0.00 61 1021.2
20210923074638 61 196 0.0 0.0 0.00 0.00 0.00 61 1021.4
20210923073123 62 196 0.0 0.0 0.00 0.00 0.00 61 1021.4
20210923071710 62 196 0.0 0.0 0.00 0.00 0.00 59 1021.4
20210923070148 62 196 0.0 0.0 0.00 0.00 0.00 59 1021.3
20210923064550 63 196 0.0 0.0 0.00 0.00 0.00 57 1021.4
20210923063118 63 196 0.0 0.0 0.00 0.00 0.00 57 1021.4
20210923061644 64 196 0.0 0.0 0.00 0.00 0.00 56 1021.4
20210923060149 64 196 0.0 0.0 0.00 0.00 0.00 55 1021.3
20210923054607 64 196 0.0 0.0 0.00 0.00 0.00 54 1021.3
20210923053123 65 196 0.0 0.0 0.00 0.00 0.00 53 1021.4
20210923051630 65 196 0.0 0.0 0.00 0.00 0.00 52 1021.3
20210923050046 66 196 0.0 0.0 0.00 0.00 0.00 51 1021.3
20210923044546 66 196 0.0 0.0 0.00 0.00 0.00 51 1021.4
20210923043043 67 196 0.0 0.0 0.00 0.00 0.00 49 1021.3
20210923041543 68 196 0.0 0.0 0.00 0.00 0.00 49 1021.3
20210923040049 69 196 0.0 0.0 0.00 0.00 0.00 49 1021.4
20210923034547 69 196 0.0 0.0 0.00 0.00 0.00 47 1021.4
20210923033031 70 196 0.0 0.0 0.00 0.00 0.00 47 1021.3
20210923031523 70 196 0.0 0.0 0.00 0.00 0.00 45 1021.4
20210923030046 71 196 0.0 0.0 0.00 0.00 0.00 43 1021.4
20210923024529 72 196 0.0 0.0 0.00 0.00 0.00 42 1021.3
20210923023016 73 196 0.0 0.0 0.00 0.00 0.00 40 1021.3
20210923021514 74 196 0.0 0.0 0.00 0.00 0.00 39 1021.2
20210923020018 75 196 0.0 0.0 0.00 0.00 0.00 38 1021.0
20210923014539 76 196 0.0 0.0 0.00 0.00 0.00 37 1020.9
20210923013019 77 196 0.0 0.0 0.00 0.00 0.00 36 1020.6
20210923011516 79 196 0.0 0.0 0.00 0.00 0.00 35 1020.3
20210923010019 80 196 0.0 0.0 0.00 0.00 0.00 33 1020.1
20210923004510 81 196 0.0 0.0 0.00 0.00 0.00 32 1020.2
20210923003012 82 196 0.0 0.0 0.00 0.00 0.00 30 1020.3
20210923001540 83 196 0.0 0.0 0.00 0.00 0.00 29 1020.3
20210923000018 84 196 0.0 0.0 0.00 0.00 0.00 28 1020.4
20210922234513 85 173 0.0 0.0 0.00 0.00 0.00 27 1020.5
20210922233024 85 173 0.0 0.0 0.00 0.00 0.00 26 1020.5
20210922231506 85 173 0.0 7.0 0.00 0.00 0.00 25 1020.4
20210922224506 87 182 0.0 6.0 0.00 0.00 0.00 24 1020.7
20210922223132 88 192 0.0 3.0 0.00 0.00 0.00 23 1020.8
20210922221606 88 131 0.0 3.0 0.00 0.00 0.00 24 1021.0
20210922220215 88 207 0.0 0.0 0.00 0.00 0.00 24 1021.2
20210922214612 89 203 0.0 6.0 0.00 0.00 0.00 24 1021.3